Terminal Aerodrome Forecast
Issued by NWS Grand Forks, ND

Home | Current Version | Previous Version | Graphics & Text | Print | Product List | Glossary On
Versions: 1 2 3 4 5 6 7 8 9 10 11 12 13 14 15 16 17
000
FTUS43 KFGF 242036 AAB
TAFGFK
TAF AMD
KGFK 242036Z 2421/2518 15016G22KT P6SM OVC035
     FM242200 15017G26KT P6SM VCTS OVC035CB
      TEMPO 2423/2503 4SM -TSRA OVC025CB
     FM250400 16013KT P6SM BKN035
     FM251400 26009KT P6SM BKN025
     FM251500 28010KT P6SM VCSH OVC010=

USA.gov is the U.S. government's official web portal to all federal, state and local government web resources and services.